createdAt,value
2016-09-29T03:00:35.474Z,0
2016-09-29T03:01:01.038Z,0
2016-09-29T03:01:26.594Z,0
2016-09-29T03:01:52.633Z,0
2016-09-29T03:04:20.735Z,0
2016-09-29T03:05:43.382Z,0
2016-09-29T03:06:08.953Z,0
2016-09-29T03:06:34.597Z,0
2016-09-29T03:07:00.163Z,0
2016-09-29T03:07:25.880Z,0
2016-09-29T03:07:51.435Z,0
2016-09-29T03:08:16.994Z,0
2016-09-29T03:08:42.658Z,0
2016-09-29T03:09:08.211Z,0
2016-09-29T03:09:33.752Z,0
2016-09-29T03:09:59.298Z,0
2016-09-29T03:10:24.847Z,0
2016-09-29T03:10:50.401Z,0
2016-09-29T03:11:15.978Z,0
2016-09-29T03:12:19.183Z,0
2016-09-29T03:12:44.869Z,0
2016-09-29T03:14:03.403Z,0
2016-09-29T03:14:28.995Z,0
2016-09-29T03:14:54.611Z,0
2016-09-29T03:16:18.265Z,0
2016-09-29T03:16:43.820Z,0
2016-09-29T03:17:09.373Z,0
2016-09-29T03:17:34.975Z,0
2016-09-29T03:18:00.595Z,0
2016-09-29T03:19:03.752Z,0
2016-09-29T03:19:29.478Z,0
2016-09-29T03:19:55.107Z,0
2016-09-29T03:20:20.675Z,0
2016-09-29T03:20:46.245Z,0
2016-09-29T03:21:11.821Z,0
2016-09-29T03:21:37.384Z,0
2016-09-29T03:22:02.987Z,0
2016-09-29T03:22:28.662Z,0
2016-09-29T03:22:54.234Z,0
2016-09-29T03:23:19.897Z,0
2016-09-29T03:23:45.461Z,0
2016-09-29T03:24:11.081Z,0
2016-09-29T03:24:36.706Z,0
2016-09-29T03:25:02.252Z,0
2016-09-29T03:25:27.906Z,0
2016-09-29T03:25:53.471Z,0
2016-09-29T03:26:19.163Z,0
2016-09-29T03:26:44.794Z,0
2016-09-29T03:27:10.382Z,0
2016-09-29T03:27:35.914Z,0
2016-09-29T03:28:01.455Z,0
2016-09-29T03:28:27.024Z,0
2016-09-29T03:28:52.588Z,0
2016-09-29T03:29:18.175Z,0
2016-09-29T03:29:43.837Z,0
2016-09-29T03:30:09.584Z,0
2016-09-29T03:30:35.175Z,0
2016-09-29T03:31:00.773Z,0
2016-09-29T03:31:26.315Z,0
2016-09-29T03:31:51.941Z,0
2016-09-29T03:32:17.502Z,0
2016-09-29T03:32:43.153Z,0
2016-09-29T03:33:08.700Z,0
2016-09-29T03:33:34.363Z,0
2016-09-29T03:33:59.935Z,0
2016-09-29T03:34:25.495Z,0
2016-09-29T03:34:51.125Z,0
2016-09-29T03:35:16.694Z,0
2016-09-29T03:35:42.279Z,0
2016-09-29T03:36:07.914Z,0
2016-09-29T03:36:33.482Z,0
2016-09-29T03:36:59.051Z,0
2016-09-29T03:37:24.616Z,0
2016-09-29T03:37:50.251Z,0
2016-09-29T03:38:15.890Z,0
2016-09-29T03:38:41.424Z,0
2016-09-29T03:39:06.976Z,0
2016-09-29T03:39:32.533Z,0
2016-09-29T03:39:58.123Z,0
2016-09-29T03:40:23.675Z,0
2016-09-29T03:40:49.248Z,0
2016-09-29T03:41:14.831Z,0
2016-09-29T03:41:40.407Z,0
2016-09-29T03:42:06.088Z,0
2016-09-29T03:42:31.650Z,0
2016-09-29T03:42:57.234Z,0
2016-09-29T03:43:22.814Z,0
2016-09-29T03:43:48.485Z,0
2016-09-29T03:44:14.088Z,0
2016-09-29T03:44:39.693Z,0
2016-09-29T03:45:05.302Z,0
2016-09-29T03:45:30.874Z,0
2016-09-29T03:45:56.443Z,0
2016-09-29T03:46:22.020Z,0
2016-09-29T03:46:47.568Z,0
2016-09-29T03:47:13.124Z,0
2016-09-29T03:47:38.708Z,0
2016-09-29T03:48:04.345Z,0
2016-09-29T03:48:29.906Z,0
2016-09-29T03:48:55.525Z,0
2016-09-29T03:49:21.117Z,0
2016-09-29T03:49:46.693Z,0
2016-09-29T03:50:12.262Z,0
2016-09-29T03:50:37.840Z,0
2016-09-29T03:51:03.423Z,0
2016-09-29T03:51:28.997Z,0
2016-09-29T03:51:54.650Z,0
2016-09-29T03:52:20.225Z,0
2016-09-29T03:52:45.874Z,0
2016-09-29T03:53:11.437Z,0
2016-09-29T03:53:36.988Z,0
2016-09-29T03:54:02.687Z,0
2016-09-29T03:54:28.257Z,0
2016-09-29T03:54:53.797Z,0
2016-09-29T03:55:19.502Z,0
2016-09-29T03:55:45.073Z,0
2016-09-29T03:56:10.737Z,0
2016-09-29T03:56:36.298Z,0
2016-09-29T03:57:01.869Z,0
2016-09-29T03:57:27.474Z,0
2016-09-29T03:57:53.076Z,0
2016-09-29T03:59:16.941Z,0
2016-09-29T03:59:42.538Z,0
2016-09-29T04:00:08.103Z,0
2016-09-29T04:00:33.681Z,0
2016-09-29T04:00:59.433Z,0
2016-09-29T04:01:24.992Z,0
2016-09-29T04:01:50.601Z,0
2016-09-29T04:02:16.157Z,0
2016-09-29T04:02:41.792Z,0
2016-09-29T04:03:07.378Z,0
2016-09-29T04:03:32.931Z,0
2016-09-29T04:03:58.525Z,0
2016-09-29T04:04:24.063Z,0
2016-09-29T04:04:49.681Z,0
2016-09-29T04:05:15.286Z,0
2016-09-29T04:05:40.875Z,0
2016-09-29T04:06:06.539Z,0
2016-09-29T04:06:32.210Z,0
2016-09-29T04:06:57.766Z,0
2016-09-29T04:07:23.412Z,0
2016-09-29T04:07:48.999Z,0
2016-09-29T04:08:14.823Z,0
2016-09-29T04:08:40.453Z,0
2016-09-29T04:09:06.019Z,0
2016-09-29T04:09:31.582Z,0
2016-09-29T04:09:57.219Z,0
2016-09-29T04:10:22.778Z,0
2016-09-29T04:10:48.332Z,0
2016-09-29T04:11:13.900Z,0
2016-09-29T04:11:39.528Z,0
2016-09-29T04:12:05.093Z,0
2016-09-29T04:13:18.573Z,0
2016-09-29T04:13:44.187Z,0
2016-09-29T04:14:09.777Z,0
2016-09-29T04:14:35.332Z,0
2016-09-29T04:15:00.922Z,0
2016-09-29T04:15:26.460Z,0
2016-09-29T04:15:52.059Z,0
2016-09-29T04:16:17.649Z,0
2016-09-29T04:16:43.197Z,0
2016-09-29T04:17:08.770Z,0
2016-09-29T04:18:17.076Z,0
2016-09-29T04:18:42.653Z,0
2016-09-29T04:19:08.223Z,0
2016-09-29T04:19:33.852Z,0
2016-09-29T04:19:59.404Z,0
2016-09-29T04:20:24.945Z,0
2016-09-29T04:20:50.487Z,0
2016-09-29T04:21:16.028Z,0
2016-09-29T04:21:41.669Z,0
2016-09-29T04:22:07.307Z,0
2016-09-29T04:22:32.856Z,0
2016-09-29T04:22:58.411Z,0
2016-09-29T04:23:24.086Z,0
2016-09-29T04:23:49.641Z,0
2016-09-29T04:24:15.205Z,0
2016-09-29T04:24:40.788Z,0
2016-09-29T04:25:06.351Z,0
2016-09-29T04:25:31.899Z,0
2016-09-29T04:25:57.465Z,0
2016-09-29T04:26:23.038Z,0
2016-09-29T04:26:48.600Z,0
2016-09-29T04:27:14.252Z,0
2016-09-29T04:27:39.825Z,0
2016-09-29T04:28:05.382Z,0
2016-09-29T04:28:30.943Z,0
2016-09-29T04:28:56.532Z,0
2016-09-29T04:29:22.115Z,0
2016-09-29T04:29:47.703Z,0
2016-09-29T04:30:13.266Z,0
2016-09-29T04:30:38.924Z,0
2016-09-29T04:31:04.477Z,0
2016-09-29T04:31:30.046Z,0
2016-09-29T04:31:55.577Z,0
2016-09-29T04:32:21.130Z,0
2016-09-29T04:32:46.681Z,0
2016-09-29T04:33:12.259Z,0
2016-09-29T04:33:37.799Z,0
2016-09-29T04:34:03.339Z,0
2016-09-29T04:34:28.969Z,0
2016-09-29T04:34:54.548Z,0
2016-09-29T04:35:20.112Z,0
2016-09-29T04:35:45.769Z,0
2016-09-29T04:36:11.315Z,0
2016-09-29T04:36:36.864Z,0
2016-09-29T04:37:02.401Z,0
2016-09-29T04:37:27.985Z,0
2016-09-29T04:37:53.526Z,0
2016-09-29T04:38:19.158Z,0
2016-09-29T04:38:44.704Z,0
2016-09-29T04:39:10.264Z,0
2016-09-29T04:39:35.843Z,0
2016-09-29T04:40:01.397Z,0
2016-09-29T04:40:26.968Z,0
2016-09-29T04:40:52.531Z,0
2016-09-29T04:41:18.062Z,0
2016-09-29T04:41:43.619Z,0
2016-09-29T04:42:09.748Z,0
2016-09-29T04:42:35.332Z,0
2016-09-29T04:43:00.880Z,0
2016-09-29T04:43:26.439Z,0
2016-09-29T04:43:52.045Z,0
2016-09-29T04:44:17.585Z,0
2016-09-29T04:44:43.138Z,0
2016-09-29T04:45:08.706Z,0
2016-09-29T04:45:34.348Z,0
2016-09-29T04:46:00.007Z,0
2016-09-29T04:46:25.569Z,0
2016-09-29T04:46:51.127Z,0
2016-09-29T04:47:16.661Z,0
2016-09-29T04:47:42.201Z,0
2016-09-29T04:48:07.753Z,0
2016-09-29T04:48:33.380Z,0
2016-09-29T04:48:58.989Z,0
2016-09-29T04:49:24.577Z,0
2016-09-29T04:49:50.130Z,0
2016-09-29T04:50:15.750Z,0
2016-09-29T04:50:41.339Z,0
2016-09-29T04:51:06.897Z,0
2016-09-29T04:51:32.479Z,0
2016-09-29T04:51:58.108Z,0
2016-09-29T04:52:23.693Z,0
2016-09-29T04:52:49.269Z,0
2016-09-29T04:53:14.900Z,0
2016-09-29T04:53:40.529Z,0
2016-09-29T04:54:06.143Z,0
2016-09-29T04:54:31.712Z,0
2016-09-29T04:54:57.314Z,0
2016-09-29T04:55:22.904Z,0
2016-09-29T04:55:48.519Z,0
2016-09-29T04:56:14.157Z,0
2016-09-29T04:56:39.785Z,0
2016-09-29T04:57:05.354Z,0
2016-09-29T04:57:30.905Z,0
2016-09-29T04:57:56.593Z,0
2016-09-29T04:58:22.146Z,0
2016-09-29T04:58:47.779Z,0
2016-09-29T04:59:13.321Z,0
2016-09-29T04:59:38.887Z,0
2016-09-29T05:00:04.511Z,0
2016-09-29T05:00:30.109Z,0
2016-09-29T05:00:55.657Z,0
2016-09-29T05:01:21.192Z,0
2016-09-29T05:01:46.767Z,0
2016-09-29T05:02:12.368Z,0
2016-09-29T05:02:37.938Z,0
2016-09-29T05:03:03.526Z,0
2016-09-29T05:03:29.102Z,0
2016-09-29T05:03:54.696Z,0
2016-09-29T05:04:20.323Z,0
2016-09-29T05:04:45.883Z,0
2016-09-29T05:05:11.483Z,0
2016-09-29T05:05:37.051Z,0
2016-09-29T05:06:02.672Z,0
2016-09-29T05:06:28.277Z,0
2016-09-29T05:06:53.943Z,0
2016-09-29T05:07:19.601Z,0
2016-09-29T05:07:45.172Z,0
2016-09-29T05:08:10.790Z,0
2016-09-29T05:08:36.555Z,0
2016-09-29T05:09:02.246Z,0
2016-09-29T05:10:20.907Z,0
2016-09-29T05:10:46.552Z,0
2016-09-29T05:11:12.123Z,0
2016-09-29T05:11:37.723Z,0
2016-09-29T05:12:03.445Z,0
2016-09-29T05:12:29.002Z,0
2016-09-29T05:12:54.566Z,0
2016-09-29T05:13:20.216Z,0
2016-09-29T05:13:45.785Z,0
2016-09-29T05:14:11.447Z,0
2016-09-29T05:14:37.020Z,0
2016-09-29T05:15:02.743Z,0
2016-09-29T05:15:28.347Z,0
2016-09-29T05:15:53.891Z,0
2016-09-29T05:16:19.518Z,0
2016-09-29T05:16:45.088Z,0
2016-09-29T05:17:10.734Z,0
2016-09-29T05:17:36.297Z,0
2016-09-29T05:18:01.976Z,0
2016-09-29T05:18:27.555Z,0
2016-09-29T05:18:53.121Z,0
2016-09-29T05:21:05.521Z,4
2016-09-29T05:22:19.041Z,4
2016-09-29T05:22:44.703Z,4
2016-09-29T05:23:10.268Z,4
2016-09-29T05:23:35.865Z,4
2016-09-29T05:24:01.420Z,4
2016-09-29T05:24:27.000Z,4
2016-09-29T05:25:40.626Z,0
2016-09-29T05:26:06.253Z,0
2016-09-29T05:26:31.809Z,0
2016-09-29T05:26:57.372Z,0
2016-09-29T05:27:23.012Z,0
2016-09-29T05:27:48.783Z,4
2016-09-29T05:28:14.341Z,4
2016-09-29T05:28:39.919Z,4
2016-09-29T05:29:05.487Z,4
2016-09-29T05:29:31.149Z,4
2016-09-29T05:29:56.724Z,4
2016-09-29T05:30:22.273Z,4
2016-09-29T05:30:47.801Z,4
2016-09-29T05:31:13.340Z,0
2016-09-29T05:31:38.909Z,4
2016-09-29T05:32:04.470Z,4
2016-09-29T05:32:30.092Z,4
2016-09-29T05:32:55.660Z,4
2016-09-29T05:34:19.340Z,4
2016-09-29T05:34:44.995Z,4
2016-09-29T05:35:10.560Z,4
2016-09-29T05:35:36.120Z,4
2016-09-29T05:36:01.656Z,8
2016-09-29T05:36:27.193Z,4
2016-09-29T05:36:52.788Z,4
2016-09-29T05:37:18.343Z,8
2016-09-29T05:37:43.886Z,8
2016-09-29T05:38:09.437Z,4
2016-09-29T05:38:35.053Z,4
2016-09-29T05:39:00.612Z,8
2016-09-29T05:39:26.165Z,8
2016-09-29T05:39:51.833Z,4
2016-09-29T05:40:17.476Z,8
2016-09-29T05:40:43.133Z,8
2016-09-29T05:41:08.703Z,8
2016-09-29T05:42:11.922Z,8
2016-09-29T05:42:37.498Z,8
2016-09-29T05:43:03.050Z,8
2016-09-29T05:44:21.584Z,8
2016-09-29T05:44:47.201Z,12
2016-09-29T05:45:12.767Z,8
2016-09-29T05:45:38.337Z,12
2016-09-29T05:46:03.899Z,12
2016-09-29T05:46:29.459Z,12
2016-09-29T05:46:55.037Z,12
2016-09-29T05:47:20.742Z,12
2016-09-29T05:47:46.316Z,12
2016-09-29T05:48:59.771Z,16
2016-09-29T05:49:25.322Z,12
2016-09-29T05:49:50.965Z,12
2016-09-29T05:50:16.542Z,16
2016-09-29T05:50:42.097Z,16
2016-09-29T05:51:07.671Z,16
2016-09-29T05:51:33.364Z,16
2016-09-29T05:51:59.030Z,12
2016-09-29T05:52:24.610Z,16
2016-09-29T05:52:50.173Z,16
2016-09-29T05:53:15.751Z,16
2016-09-29T05:53:41.425Z,16
2016-09-29T05:54:07.065Z,16
2016-09-29T05:54:32.629Z,16
2016-09-29T05:54:58.196Z,16
2016-09-29T05:55:23.763Z,20
2016-09-29T05:55:49.389Z,16
2016-09-29T05:56:14.981Z,20
2016-09-29T05:56:40.537Z,20
2016-09-29T05:57:06.342Z,16
2016-09-29T05:57:32.129Z,20
2016-09-29T05:57:57.684Z,20
2016-09-29T05:58:23.235Z,20
2016-09-29T05:58:48.809Z,20
2016-09-29T05:59:14.450Z,20
2016-09-29T05:59:40.040Z,20
2016-09-29T06:00:05.632Z,20
2016-09-29T06:01:13.947Z,20
2016-09-29T06:01:39.509Z,24
2016-09-29T06:02:05.077Z,24
2016-09-29T06:02:30.669Z,20
2016-09-29T06:02:56.299Z,24
2016-09-29T06:03:21.855Z,24
2016-09-29T06:03:47.445Z,20
2016-09-29T06:04:13.055Z,24
2016-09-29T06:04:38.620Z,24
2016-09-29T06:05:04.192Z,24
2016-09-29T06:05:29.754Z,24
2016-09-29T06:06:38.079Z,24
2016-09-29T06:07:03.634Z,28
2016-09-29T06:07:29.211Z,28
2016-09-29T06:07:54.792Z,28
2016-09-29T06:08:20.359Z,28
2016-09-29T06:08:45.940Z,28
2016-09-29T06:09:11.547Z,32
2016-09-29T06:09:37.087Z,32
2016-09-29T06:10:02.647Z,36
2016-09-29T06:10:28.210Z,32
2016-09-29T06:10:53.742Z,36
2016-09-29T06:11:19.300Z,36
2016-09-29T06:11:44.865Z,40
2016-09-29T06:12:10.420Z,40
2016-09-29T06:12:35.984Z,40
2016-09-29T06:13:01.532Z,40
2016-09-29T06:13:27.099Z,44
2016-09-29T06:13:52.657Z,40
2016-09-29T06:14:18.229Z,40
2016-09-29T06:14:43.808Z,40
2016-09-29T06:15:09.366Z,40
2016-09-29T06:15:34.939Z,44
2016-09-29T06:16:00.501Z,44
2016-09-29T06:16:26.078Z,44
2016-09-29T06:16:51.634Z,40
2016-09-29T06:17:17.287Z,40
2016-09-29T06:17:42.857Z,44
2016-09-29T06:18:08.425Z,44
2016-09-29T06:18:33.991Z,40
2016-09-29T06:18:59.675Z,44
2016-09-29T06:19:25.220Z,44
2016-09-29T06:19:50.875Z,44
2016-09-29T06:20:16.448Z,44
2016-09-29T06:20:42.020Z,44
2016-09-29T06:21:07.573Z,44
2016-09-29T06:21:33.137Z,44
2016-09-29T06:21:58.692Z,48
2016-09-29T06:22:24.246Z,48
2016-09-29T06:22:49.794Z,44
2016-09-29T06:23:15.359Z,48
2016-09-29T06:23:41.076Z,48
2016-09-29T06:24:06.628Z,48
2016-09-29T06:24:32.210Z,48
2016-09-29T06:24:57.783Z,52
2016-09-29T06:25:23.359Z,48
2016-09-29T06:25:48.944Z,48
2016-09-29T06:26:14.487Z,48
2016-09-29T06:26:40.039Z,48
2016-09-29T06:27:05.620Z,48
2016-09-29T06:27:31.178Z,48
2016-09-29T06:27:56.769Z,48
2016-09-29T06:28:22.323Z,48
2016-09-29T06:28:47.889Z,48
2016-09-29T06:29:13.444Z,48
2016-09-29T06:29:39.041Z,48
2016-09-29T06:30:04.670Z,48
2016-09-29T06:30:30.251Z,48
2016-09-29T06:30:55.805Z,52
2016-09-29T06:31:21.425Z,48
2016-09-29T06:31:47.009Z,52
2016-09-29T06:32:12.548Z,48
2016-09-29T06:32:38.138Z,52
2016-09-29T06:33:03.696Z,52
2016-09-29T06:33:29.272Z,52
2016-09-29T06:33:54.824Z,52
2016-09-29T06:34:20.405Z,56
2016-09-29T06:34:45.978Z,52
2016-09-29T06:35:11.577Z,56
2016-09-29T06:35:37.139Z,56
2016-09-29T06:36:02.696Z,56
2016-09-29T06:36:28.245Z,60
2016-09-29T06:36:53.857Z,60
2016-09-29T06:37:19.417Z,60
2016-09-29T06:37:44.989Z,60
2016-09-29T06:38:10.567Z,60
2016-09-29T06:38:36.139Z,60
2016-09-29T06:39:01.697Z,60
2016-09-29T06:39:27.272Z,64
2016-09-29T06:39:52.820Z,64
2016-09-29T06:40:18.426Z,64
2016-09-29T06:40:43.976Z,64
2016-09-29T06:41:09.542Z,64
2016-09-29T06:41:35.101Z,64
2016-09-29T06:42:00.717Z,64
2016-09-29T06:42:26.278Z,64
2016-09-29T06:42:51.827Z,68
2016-09-29T06:43:17.384Z,64
2016-09-29T06:43:42.963Z,64
2016-09-29T06:44:08.510Z,64
2016-09-29T06:44:34.100Z,64
2016-09-29T06:44:59.679Z,68
2016-09-29T06:45:25.233Z,68
2016-09-29T06:45:50.846Z,64
2016-09-29T06:46:16.433Z,64
2016-09-29T06:46:42.002Z,68
2016-09-29T06:47:07.568Z,68
2016-09-29T06:48:15.991Z,72
2016-09-29T06:48:41.578Z,72
2016-09-29T06:49:07.121Z,68
2016-09-29T06:49:32.672Z,72
2016-09-29T06:49:58.235Z,72
2016-09-29T06:50:23.792Z,72
2016-09-29T06:50:49.361Z,72
2016-09-29T06:51:14.912Z,72
2016-09-29T06:52:23.199Z,72
2016-09-29T06:52:48.780Z,72
2016-09-29T06:53:14.361Z,72
2016-09-29T06:53:39.911Z,72
2016-09-29T06:54:05.458Z,72
2016-09-29T06:54:31.168Z,72
2016-09-29T06:54:56.787Z,68
2016-09-29T06:55:22.368Z,72
2016-09-29T06:55:47.982Z,72
2016-09-29T06:56:13.588Z,72
2016-09-29T06:56:39.158Z,72
2016-09-29T06:57:04.801Z,76
2016-09-29T06:57:30.425Z,72
2016-09-29T06:57:56.009Z,76
2016-09-29T06:58:21.588Z,72
2016-09-29T06:58:47.153Z,76
2016-09-29T06:59:12.718Z,76
2016-09-29T06:59:38.285Z,76
2016-09-29T07:00:03.916Z,76
2016-09-29T07:00:29.478Z,72
2016-09-29T07:00:55.024Z,76
2016-09-29T07:01:20.594Z,76
2016-09-29T07:01:46.177Z,72
2016-09-29T07:02:11.751Z,72
2016-09-29T07:02:37.451Z,72
2016-09-29T07:03:03.026Z,76
2016-09-29T07:03:28.591Z,72
2016-09-29T07:03:54.188Z,76
2016-09-29T07:04:19.794Z,80
2016-09-29T07:04:45.361Z,80
2016-09-29T07:05:10.931Z,80
2016-09-29T07:05:36.493Z,80
2016-09-29T07:06:02.065Z,84
2016-09-29T07:06:27.639Z,84
2016-09-29T07:06:53.217Z,88
2016-09-29T07:07:18.799Z,88
2016-09-29T07:07:44.361Z,92
2016-09-29T07:08:09.928Z,92
2016-09-29T07:08:35.488Z,92
2016-09-29T07:09:01.127Z,96
2016-09-29T07:09:26.767Z,96
2016-09-29T07:09:52.331Z,100
2016-09-29T07:10:17.891Z,100
2016-09-29T07:10:43.488Z,100
2016-09-29T07:11:09.071Z,104
2016-09-29T07:11:34.660Z,100
2016-09-29T07:12:00.371Z,104
2016-09-29T07:13:19.221Z,104
2016-09-29T07:13:44.966Z,104
2016-09-29T07:14:10.512Z,108
2016-09-29T07:17:05.525Z,104
2016-09-29T07:17:31.959Z,104
2016-09-29T07:17:57.511Z,104
2016-09-29T07:18:23.089Z,104
2016-09-29T07:18:48.745Z,104
2016-09-29T07:19:14.327Z,104
2016-09-29T07:19:39.889Z,104
2016-09-29T07:20:05.441Z,100
2016-09-29T07:20:31.122Z,104
2016-09-29T07:20:56.689Z,108
2016-09-29T07:21:22.257Z,104
2016-09-29T07:21:47.860Z,108
2016-09-29T07:22:13.574Z,112
2016-09-29T07:22:39.148Z,108
2016-09-29T07:23:04.719Z,112
2016-09-29T07:23:30.296Z,112
2016-09-29T07:23:55.917Z,112
2016-09-29T07:24:21.485Z,112
2016-09-29T07:24:47.189Z,112
2016-09-29T07:25:12.748Z,116
2016-09-29T07:25:38.314Z,116
2016-09-29T07:26:03.911Z,112
2016-09-29T07:26:29.469Z,112
2016-09-29T07:26:55.222Z,112
2016-09-29T07:27:20.799Z,116
2016-09-29T07:27:46.369Z,112
2016-09-29T07:28:11.912Z,116
2016-09-29T07:28:37.471Z,112
2016-09-29T07:29:03.055Z,112
2016-09-29T07:29:28.619Z,116
2016-09-29T07:29:54.196Z,116
2016-09-29T07:30:19.793Z,116
2016-09-29T07:30:45.361Z,116
2016-09-29T07:31:10.929Z,112
2016-09-29T07:31:36.552Z,116
2016-09-29T07:32:02.116Z,112
2016-09-29T07:32:27.736Z,116
2016-09-29T07:32:53.386Z,112
2016-09-29T07:33:18.983Z,116
2016-09-29T07:33:44.546Z,116
2016-09-29T07:34:10.215Z,116
2016-09-29T07:34:35.784Z,116
2016-09-29T07:35:01.362Z,116
2016-09-29T07:35:26.978Z,116
2016-09-29T07:35:52.531Z,120
2016-09-29T07:36:18.092Z,120
2016-09-29T07:36:43.651Z,120
2016-09-29T07:37:09.206Z,120
2016-09-29T07:37:34.773Z,120
2016-09-29T07:38:00.351Z,120
2016-09-29T07:38:25.961Z,120
2016-09-29T07:38:51.521Z,120
2016-09-29T07:39:17.077Z,124
2016-09-29T07:39:42.751Z,120
2016-09-29T07:40:08.296Z,124
2016-09-29T07:40:33.953Z,124
2016-09-29T07:40:59.576Z,124
2016-09-29T07:41:25.128Z,124
2016-09-29T07:41:50.680Z,128
2016-09-29T07:42:53.950Z,128
2016-09-29T07:43:19.546Z,132
2016-09-29T07:43:45.150Z,132
2016-09-29T07:44:10.696Z,132
2016-09-29T07:44:36.257Z,132
2016-09-29T07:45:01.841Z,136
2016-09-29T07:45:27.354Z,136
2016-09-29T07:45:52.926Z,144
2016-09-29T07:46:18.467Z,140
2016-09-29T07:46:44.791Z,148
2016-09-29T07:47:09.655Z,148
2016-09-29T07:47:35.227Z,152
2016-09-29T07:48:00.769Z,148
2016-09-29T07:48:26.335Z,152
2016-09-29T07:48:51.908Z,148
2016-09-29T07:49:17.459Z,152
2016-09-29T07:49:43.036Z,152
2016-09-29T07:50:08.625Z,152
2016-09-29T07:50:34.190Z,156
2016-09-29T07:50:59.831Z,152
2016-09-29T07:51:25.375Z,156
2016-09-29T07:51:51.076Z,156
2016-09-29T07:52:16.678Z,156
2016-09-29T07:52:42.251Z,156
2016-09-29T07:53:07.798Z,156
2016-09-29T07:53:33.413Z,160
2016-09-29T07:53:58.968Z,160
2016-09-29T07:54:24.634Z,156
2016-09-29T07:54:50.206Z,156
2016-09-29T07:55:15.823Z,160
2016-09-29T07:55:41.358Z,160
2016-09-29T07:56:07.022Z,160
2016-09-29T07:56:32.570Z,160
2016-09-29T07:56:58.133Z,160
2016-09-29T07:57:23.702Z,164
2016-09-29T07:57:49.276Z,164
2016-09-29T07:58:14.841Z,164
2016-09-29T07:58:40.377Z,168
2016-09-29T07:59:05.920Z,168
2016-09-29T07:59:32.267Z,168
2016-09-29T07:59:57.818Z,168
2016-09-29T08:00:23.368Z,168
2016-09-29T08:00:48.934Z,172
2016-09-29T08:01:14.577Z,172
2016-09-29T08:01:40.150Z,176
2016-09-29T08:02:05.889Z,176
2016-09-29T08:02:31.544Z,176
2016-09-29T08:02:57.095Z,180
2016-09-29T08:03:22.671Z,180
2016-09-29T08:03:48.233Z,180
2016-09-29T08:04:13.793Z,180
2016-09-29T08:04:39.372Z,180
2016-09-29T08:05:04.984Z,180
2016-09-29T08:05:30.529Z,180
2016-09-29T08:05:56.098Z,180
2016-09-29T08:06:21.672Z,180
2016-09-29T08:06:47.233Z,180
2016-09-29T08:07:12.805Z,176
2016-09-29T08:07:38.379Z,180
2016-09-29T08:08:03.943Z,176
2016-09-29T08:08:29.523Z,180
2016-09-29T08:08:55.153Z,180
2016-09-29T08:09:20.712Z,180
2016-09-29T08:09:46.292Z,180
2016-09-29T08:10:11.845Z,180
2016-09-29T08:10:37.410Z,180
2016-09-29T08:11:02.988Z,184
2016-09-29T08:11:28.549Z,184
2016-09-29T08:11:54.132Z,184
2016-09-29T08:12:19.707Z,184
2016-09-29T08:12:45.286Z,184
2016-09-29T08:13:10.958Z,188
2016-09-29T08:13:36.646Z,184
2016-09-29T08:14:02.269Z,188
2016-09-29T08:15:25.981Z,184
2016-09-29T08:15:51.656Z,184
2016-09-29T08:16:17.213Z,180
2016-09-29T08:16:42.770Z,180
2016-09-29T08:17:08.406Z,176
2016-09-29T08:17:33.972Z,180
2016-09-29T08:17:59.596Z,176
2016-09-29T08:18:25.175Z,176
2016-09-29T08:18:50.730Z,176
2016-09-29T08:19:16.274Z,176
2016-09-29T08:19:41.839Z,168
2016-09-29T08:20:07.371Z,164
2016-09-29T08:20:32.907Z,164
2016-09-29T08:20:58.507Z,160
2016-09-29T08:21:24.081Z,160
2016-09-29T08:21:49.643Z,156
2016-09-29T08:22:15.339Z,152
2016-09-29T08:22:40.913Z,152
2016-09-29T08:23:06.519Z,152
2016-09-29T08:23:32.127Z,148
2016-09-29T08:23:57.724Z,148
2016-09-29T08:24:23.272Z,148
2016-09-29T08:24:48.829Z,148
2016-09-29T08:25:14.376Z,152
2016-09-29T08:25:39.939Z,152
2016-09-29T08:26:05.510Z,152
2016-09-29T08:26:31.113Z,156
2016-09-29T08:26:56.753Z,152
2016-09-29T08:27:22.315Z,156
2016-09-29T08:27:47.874Z,152
2016-09-29T08:28:13.454Z,152
2016-09-29T08:28:39.021Z,156
2016-09-29T08:29:04.626Z,156
2016-09-29T08:29:30.172Z,160
2016-09-29T08:29:55.741Z,160
2016-09-29T08:30:21.305Z,160
2016-09-29T08:30:46.871Z,156
2016-09-29T08:31:12.530Z,156
2016-09-29T08:31:38.083Z,156
2016-09-29T08:32:03.650Z,152
2016-09-29T08:32:29.244Z,148
2016-09-29T08:32:54.806Z,148
2016-09-29T08:33:58.379Z,148
2016-09-29T08:34:23.939Z,152
2016-09-29T08:34:49.529Z,156
2016-09-29T08:35:15.118Z,164
2016-09-29T08:35:40.736Z,168
2016-09-29T08:36:06.303Z,176
2016-09-29T08:36:31.934Z,172
2016-09-29T08:36:57.507Z,168
2016-09-29T08:37:23.094Z,160
2016-09-29T08:37:48.670Z,160
2016-09-29T08:38:14.243Z,156
2016-09-29T08:38:39.810Z,160
2016-09-29T08:39:05.369Z,164
2016-09-29T08:39:31.136Z,164
2016-09-29T08:39:56.771Z,168
2016-09-29T08:40:22.339Z,172
2016-09-29T08:40:47.926Z,180
2016-09-29T08:41:13.500Z,184
2016-09-29T08:41:39.047Z,188
2016-09-29T08:42:04.624Z,192
2016-09-29T08:42:30.305Z,200
2016-09-29T08:42:55.875Z,204
2016-09-29T08:43:21.435Z,208
2016-09-29T08:43:46.997Z,212
2016-09-29T08:44:12.551Z,216
2016-09-29T08:47:15.949Z,236
2016-09-29T08:48:19.124Z,232
2016-09-29T08:48:44.698Z,232
2016-09-29T08:49:10.273Z,224
2016-09-29T08:49:35.836Z,224
2016-09-29T08:50:01.405Z,224
2016-09-29T08:50:26.964Z,216
2016-09-29T08:50:52.588Z,216
2016-09-29T08:51:18.156Z,212
2016-09-29T08:51:43.736Z,212
2016-09-29T08:52:09.310Z,212
2016-09-29T08:52:34.917Z,212
2016-09-29T08:53:00.506Z,212
2016-09-29T08:54:24.261Z,228
2016-09-29T08:54:49.836Z,232
2016-09-29T08:55:15.402Z,232
2016-09-29T08:55:41.056Z,224
2016-09-29T08:56:06.693Z,224
2016-09-29T08:56:32.255Z,228
2016-09-29T08:56:57.814Z,224
2016-09-29T08:57:23.474Z,224
2016-09-29T08:57:49.037Z,216
2016-09-29T08:58:14.603Z,216
2016-09-29T08:58:40.170Z,232
2016-09-29T08:59:05.724Z,228
2016-09-29T08:59:31.281Z,228
2016-09-29T08:59:56.856Z,220
2016-09-29T09:00:22.411Z,220
2016-09-29T09:00:47.970Z,228
2016-09-29T09:01:13.620Z,224
2016-09-29T09:02:31.483Z,216
2016-09-29T09:02:57.144Z,216
2016-09-29T09:03:22.697Z,216
2016-09-29T09:03:48.295Z,212
2016-09-29T09:04:14.047Z,212
2016-09-29T09:04:39.611Z,216
2016-09-29T09:05:05.180Z,216
2016-09-29T09:05:31.445Z,224
2016-09-29T09:05:57.034Z,232
2016-09-29T09:06:23.323Z,236
2016-09-29T09:06:48.909Z,236
2016-09-29T09:07:15.007Z,244
2016-09-29T09:07:40.568Z,248
2016-09-29T09:08:06.129Z,252
2016-09-29T09:08:32.377Z,252
2016-09-29T09:08:57.975Z,256
2016-09-29T09:09:24.146Z,260
2016-09-29T09:09:49.692Z,256
2016-09-29T09:10:15.241Z,260
2016-09-29T09:10:41.556Z,260
2016-09-29T09:11:07.118Z,256
2016-09-29T09:11:33.359Z,256
2016-09-29T09:11:58.922Z,260
2016-09-29T09:12:25.091Z,268
2016-09-29T09:12:50.640Z,272
2016-09-29T09:13:16.205Z,284
2016-09-29T09:13:42.454Z,280
2016-09-29T09:14:08.030Z,280
2016-09-29T09:14:34.234Z,284
2016-09-29T09:14:59.791Z,284
2016-09-29T09:15:25.348Z,284
2016-09-29T09:15:51.596Z,284
2016-09-29T09:16:17.206Z,280
2016-09-29T09:16:43.413Z,276
2016-09-29T09:17:08.987Z,264
2016-09-29T09:17:35.152Z,268
2016-09-29T09:18:00.705Z,264
2016-09-29T09:18:26.275Z,264
2016-09-29T09:18:52.557Z,252
2016-09-29T09:19:18.105Z,268
2016-09-29T09:19:44.290Z,268
2016-09-29T09:20:09.883Z,256
2016-09-29T09:20:35.448Z,264
2016-09-29T09:21:01.735Z,264
2016-09-29T09:21:27.385Z,256
2016-09-29T09:21:53.467Z,252
2016-09-29T09:22:19.044Z,248
2016-09-29T09:23:27.392Z,260
2016-09-29T09:23:52.936Z,264
2016-09-29T09:24:18.486Z,260
2016-09-29T09:24:44.086Z,276
2016-09-29T09:25:09.647Z,256
2016-09-29T09:25:35.193Z,248
2016-09-29T09:26:00.747Z,252
2016-09-29T09:26:26.320Z,240
2016-09-29T09:26:51.875Z,236
2016-09-29T09:27:17.554Z,232
2016-09-29T09:27:43.115Z,232
2016-09-29T09:28:08.681Z,232
2016-09-29T09:28:34.261Z,228
2016-09-29T09:28:59.829Z,220
2016-09-29T09:29:25.411Z,224
2016-09-29T09:29:50.959Z,216
2016-09-29T09:30:16.560Z,216
2016-09-29T09:30:42.730Z,216
2016-09-29T09:31:08.293Z,212
2016-09-29T09:31:33.991Z,212
2016-09-29T09:31:59.562Z,212
2016-09-29T09:32:25.227Z,208
2016-09-29T09:33:38.770Z,216
2016-09-29T09:34:04.477Z,212
2016-09-29T09:34:30.067Z,212
2016-09-29T09:34:55.625Z,212
2016-09-29T09:35:21.272Z,212
2016-09-29T09:35:46.849Z,208
2016-09-29T09:36:12.390Z,200
2016-09-29T09:36:37.927Z,200
2016-09-29T09:37:03.470Z,200